sensor_id;sensor_type;location;lat;lon;timestamp;pressure;altitude;pressure_sealevel;temperature;humidity
12247;BME280;6186;52.022;4.692;2023-05-19T00:00:51;102853.56;;;12.05;57.60
12247;BME280;6186;52.022;4.692;2023-05-19T00:03:17;102854.44;;;12.01;57.81
12247;BME280;6186;52.022;4.692;2023-05-19T00:05:42;102843.84;;;11.97;57.88
12247;BME280;6186;52.022;4.692;2023-05-19T00:08:09;102852.63;;;11.93;57.68
12247;BME280;6186;52.022;4.692;2023-05-19T00:10:35;102851.75;;;11.89;57.87
12247;BME280;6186;52.022;4.692;2023-05-19T00:13:00;102848.22;;;11.87;57.75
12247;BME280;6186;52.022;4.692;2023-05-19T00:15:26;102853.50;;;11.86;57.82
12247;BME280;6186;52.022;4.692;2023-05-19T00:17:51;102838.56;;;11.82;57.96
12247;BME280;6186;52.022;4.692;2023-05-19T00:20:16;102839.44;;;11.75;57.77
12247;BME280;6186;52.022;4.692;2023-05-19T00:22:41;102843.81;;;11.73;57.90
12247;BME280;6186;52.022;4.692;2023-05-19T00:25:07;102839.41;;;11.72;57.88
12247;BME280;6186;52.022;4.692;2023-05-19T00:27:32;102838.53;;;11.67;57.82
12247;BME280;6186;52.022;4.692;2023-05-19T00:29:57;102844.69;;;11.66;58.06
12247;BME280;6186;52.022;4.692;2023-05-19T00:32:23;102846.38;;;11.62;58.00
12247;BME280;6186;52.022;4.692;2023-05-19T00:34:48;102843.75;;;11.58;58.28
12247;BME280;6186;52.022;4.692;2023-05-19T00:37:13;102854.28;;;11.55;58.27
12247;BME280;6186;52.022;4.692;2023-05-19T00:39:38;102856.03;;;11.51;58.28
12247;BME280;6186;52.022;4.692;2023-05-19T00:42:04;102852.50;;;11.49;58.37
12247;BME280;6186;52.022;4.692;2023-05-19T00:44:30;102834.91;;;11.41;58.11
12247;BME280;6186;52.022;4.692;2023-05-19T00:46:55;102838.44;;;11.43;58.54
12247;BME280;6186;52.022;4.692;2023-05-19T00:49:21;102848.09;;;11.45;58.30
12247;BME280;6186;52.022;4.692;2023-05-19T00:51:46;102847.19;;;11.40;58.35
12247;BME280;6186;52.022;4.692;2023-05-19T00:54:11;102851.59;;;11.39;58.45
12247;BME280;6186;52.022;4.692;2023-05-19T00:56:36;102847.19;;;11.37;58.43
12247;BME280;6186;52.022;4.692;2023-05-19T00:59:02;102845.44;;;11.34;58.69
12247;BME280;6186;52.022;4.692;2023-05-19T01:01:27;102843.66;;;11.32;58.59
12247;BME280;6186;52.022;4.692;2023-05-19T01:03:52;102841.91;;;11.29;58.38
12247;BME280;6186;52.022;4.692;2023-05-19T01:06:18;102845.38;;;11.28;58.42
12247;BME280;6186;52.022;4.692;2023-05-19T01:08:43;102834.84;;;11.27;58.93
12247;BME280;6186;52.022;4.692;2023-05-19T01:11:09;102833.97;;;11.26;58.67
12247;BME280;6186;52.022;4.692;2023-05-19T01:13:35;102830.44;;;11.23;58.66
12247;BME280;6186;52.022;4.692;2023-05-19T01:19:03;102835.72;;;11.20;58.81
12247;BME280;6186;52.022;4.692;2023-05-19T01:21:39;102837.44;;;11.16;58.94
12247;BME280;6186;52.022;4.692;2023-05-19T01:29:34;102829.50;;;11.10;58.91
12247;BME280;6186;52.022;4.692;2023-05-19T01:32:05;102827.72;;;11.09;59.25
12247;BME280;6186;52.022;4.692;2023-05-19T01:34:33;102820.72;;;11.08;59.22
12247;BME280;6186;52.022;4.692;2023-05-19T01:36:59;102819.81;;;11.05;59.32
12247;BME280;6186;52.022;4.692;2023-05-19T01:39:26;102822.44;;;11.03;59.33
12247;BME280;6186;52.022;4.692;2023-05-19T01:41:53;102815.41;;;11.02;59.06
12247;BME280;6186;52.022;4.692;2023-05-19T01:44:19;102813.66;;;11.01;59.23
12247;BME280;6186;52.022;4.692;2023-05-19T01:46:44;102815.41;;;10.99;59.16
12247;BME280;6186;52.022;4.692;2023-05-19T01:49:10;102822.44;;;10.99;59.36
12247;BME280;6186;52.022;4.692;2023-05-19T01:51:35;102825.06;;;10.97;59.49
12247;BME280;6186;52.022;4.692;2023-05-19T01:54:00;102815.38;;;10.96;59.24
12247;BME280;6186;52.022;4.692;2023-05-19T01:56:40;102818.00;;;10.93;59.46
12247;BME280;6186;52.022;4.692;2023-05-19T02:02:11;102820.66;;;10.92;59.41
12247;BME280;6186;52.022;4.692;2023-05-19T02:04:45;102802.16;;;10.87;59.92
12247;BME280;6186;52.022;4.692;2023-05-19T02:07:22;102809.19;;;10.84;59.63
12247;BME280;6186;52.022;4.692;2023-05-19T02:09:54;102813.56;;;10.85;59.39
12247;BME280;6186;52.022;4.692;2023-05-19T02:12:28;102810.03;;;10.81;59.26
12247;BME280;6186;52.022;4.692;2023-05-19T02:17:26;102810.88;;;10.76;59.51
12247;BME280;6186;52.022;4.692;2023-05-19T02:19:53;102802.09;;;10.74;59.62
12247;BME280;6186;52.022;4.692;2023-05-19T02:22:18;102801.19;;;10.72;59.56
12247;BME280;6186;52.022;4.692;2023-05-19T02:24:43;102795.94;;;10.70;60.05
12247;BME280;6186;52.022;4.692;2023-05-19T02:27:08;102797.66;;;10.68;59.83
12247;BME280;6186;52.022;4.692;2023-05-19T02:29:34;102795.94;;;10.67;59.77
12247;BME280;6186;52.022;4.692;2023-05-19T02:32:00;102794.13;;;10.63;59.92
12247;BME280;6186;52.022;4.692;2023-05-19T02:34:25;102790.63;;;10.66;59.84
12247;BME280;6186;52.022;4.692;2023-05-19T02:36:50;102797.66;;;10.65;60.19
12247;BME280;6186;52.022;4.692;2023-05-19T02:39:17;102799.41;;;10.63;59.96
12247;BME280;6186;52.022;4.692;2023-05-19T02:41:42;102793.25;;;10.61;60.34
12247;BME280;6186;52.022;4.692;2023-05-19T02:44:07;102793.25;;;10.61;60.30
12247;BME280;6186;52.022;4.692;2023-05-19T02:46:32;102797.63;;;10.61;60.23
12247;BME280;6186;52.022;4.692;2023-05-19T02:48:58;102792.34;;;10.58;60.38
12247;BME280;6186;52.022;4.692;2023-05-19T02:51:23;102781.78;;;10.53;60.24
12247;BME280;6186;52.022;4.692;2023-05-19T02:53:49;102789.69;;;10.53;60.14
12247;BME280;6186;52.022;4.692;2023-05-19T02:56:14;102785.31;;;10.54;60.48
12247;BME280;6186;52.022;4.692;2023-05-19T02:58:39;102791.44;;;10.54;60.29
12247;BME280;6186;52.022;4.692;2023-05-19T03:01:05;102780.00;;;10.51;60.43
12247;BME280;6186;52.022;4.692;2023-05-19T03:03:30;102775.63;;;10.48;60.37
12247;BME280;6186;52.022;4.692;2023-05-19T03:05:55;102783.53;;;10.48;60.70
12247;BME280;6186;52.022;4.692;2023-05-19T03:08:20;102775.59;;;10.47;60.63
12247;BME280;6186;52.022;4.692;2023-05-19T03:10:46;102776.47;;;10.44;60.55
12247;BME280;6186;52.022;4.692;2023-05-19T03:13:11;102764.16;;;10.37;60.48
12247;BME280;6186;52.022;4.692;2023-05-19T03:15:36;102777.31;;;10.41;60.66
12247;BME280;6186;52.022;4.692;2023-05-19T03:18:03;102772.91;;;10.39;60.79
12247;BME280;6186;52.022;4.692;2023-05-19T03:20:29;102777.31;;;10.40;60.91
12247;BME280;6186;52.022;4.692;2023-05-19T03:22:54;102774.69;;;10.37;60.79
12247;BME280;6186;52.022;4.692;2023-05-19T03:25:19;102778.16;;;10.33;60.95
12247;BME280;6186;52.022;4.692;2023-05-19T03:27:44;102780.75;;;10.30;60.86
12247;BME280;6186;52.022;4.692;2023-05-19T03:30:10;102776.38;;;10.29;61.08
12247;BME280;6186;52.022;4.692;2023-05-19T03:32:36;102770.22;;;10.27;60.90
12247;BME280;6186;52.022;4.692;2023-05-19T03:35:01;102768.44;;;10.24;60.93
12247;BME280;6186;52.022;4.692;2023-05-19T03:37:26;102769.31;;;10.23;61.07
12247;BME280;6186;52.022;4.692;2023-05-19T03:39:52;102753.47;;;10.17;61.34
12247;BME280;6186;52.022;4.692;2023-05-19T03:42:17;102764.00;;;10.22;61.43
12247;BME280;6186;52.022;4.692;2023-05-19T03:44:43;102762.25;;;10.19;61.49
12247;BME280;6186;52.022;4.692;2023-05-19T03:47:08;102762.25;;;10.18;61.14
12247;BME280;6186;52.022;4.692;2023-05-19T03:49:33;102759.59;;;10.15;61.50
12247;BME280;6186;52.022;4.692;2023-05-19T03:51:58;102767.47;;;10.13;61.29
12247;BME280;6186;52.022;4.692;2023-05-19T03:54:23;102770.09;;;10.13;61.67
12247;BME280;6186;52.022;4.692;2023-05-19T03:56:52;102769.22;;;10.13;61.59
12247;BME280;6186;52.022;4.692;2023-05-19T03:59:17;102767.47;;;10.12;61.52
12247;BME280;6186;52.022;4.692;2023-05-19T04:01:42;102778.00;;;10.12;61.70
12247;BME280;6186;52.022;4.692;2023-05-19T04:04:08;102763.84;;;10.04;61.74
12247;BME280;6186;52.022;4.692;2023-05-19T04:06:33;102783.25;;;10.12;61.96
12247;BME280;6186;52.022;4.692;2023-05-19T04:08:58;102781.47;;;10.09;61.92
12247;BME280;6186;52.022;4.692;2023-05-19T04:11:24;102779.72;;;10.10;61.94
12247;BME280;6186;52.022;4.692;2023-05-19T04:13:49;102784.09;;;10.11;62.02
12247;BME280;6186;52.022;4.692;2023-05-19T04:16:14;102784.94;;;10.08;62.07
12247;BME280;6186;52.022;4.692;2023-05-19T04:18:40;102787.59;;;10.08;62.22
12247;BME280;6186;52.022;4.692;2023-05-19T04:21:05;102757.63;;;9.93;62.35
12247;BME280;6186;52.022;4.692;2023-05-19T04:23:30;102792.84;;;10.08;62.59
12247;BME280;6186;52.022;4.692;2023-05-19T04:25:55;102795.44;;;10.07;62.79
12247;BME280;6186;52.022;4.692;2023-05-19T04:28:21;102788.44;;;10.06;62.51
12247;BME280;6186;52.022;4.692;2023-05-19T04:30:46;102798.06;;;10.07;62.66
12247;BME280;6186;52.022;4.692;2023-05-19T04:33:11;102792.81;;;10.07;62.76
12247;BME280;6186;52.022;4.692;2023-05-19T04:35:37;102781.38;;;10.03;63.00
12247;BME280;6186;52.022;4.692;2023-05-19T04:38:02;102789.41;;;10.12;63.20
12247;BME280;6186;52.022;4.692;2023-05-19T04:40:27;102788.53;;;10.15;63.20
12247;BME280;6186;52.022;4.692;2023-05-19T04:42:52;102796.47;;;10.19;63.45
12247;BME280;6186;52.022;4.692;2023-05-19T04:45:18;102799.09;;;10.21;63.37
12247;BME280;6186;52.022;4.692;2023-05-19T04:47:43;102788.59;;;10.21;63.76
12247;BME280;6186;52.022;4.692;2023-05-19T04:50:09;102787.72;;;10.23;63.89
12247;BME280;6186;52.022;4.692;2023-05-19T04:52:34;102791.25;;;10.27;63.88
12247;BME280;6186;52.022;4.692;2023-05-19T04:54:59;102793.91;;;10.30;64.29
12247;BME280;6186;52.022;4.692;2023-05-19T04:57:25;102795.69;;;10.32;64.28
12247;BME280;6186;52.022;4.692;2023-05-19T04:59:50;102784.28;;;10.30;64.38
12247;BME280;6186;52.022;4.692;2023-05-19T05:02:15;102791.38;;;10.40;64.49
12247;BME280;6186;52.022;4.692;2023-05-19T05:04:40;102785.22;;;10.41;64.72
12247;BME280;6186;52.022;4.692;2023-05-19T05:07:05;102794.00;;;10.42;64.63
12247;BME280;6186;52.022;4.692;2023-05-19T05:09:31;102793.16;;;10.45;64.74
12247;BME280;6186;52.022;4.692;2023-05-19T05:11:56;102800.16;;;10.47;64.84
12247;BME280;6186;52.022;4.692;2023-05-19T05:14:22;102801.94;;;10.50;65.54
12247;BME280;6186;52.022;4.692;2023-05-19T05:16:48;102798.44;;;10.49;65.30
12247;BME280;6186;52.022;4.692;2023-05-19T05:19:14;102799.38;;;10.57;65.61
12247;BME280;6186;52.022;4.692;2023-05-19T05:21:39;102808.16;;;10.59;65.65
12247;BME280;6186;52.022;4.692;2023-05-19T05:24:05;102806.41;;;10.61;65.64
12247;BME280;6186;52.022;4.692;2023-05-19T05:26:32;102808.19;;;10.65;65.88
12247;BME280;6186;52.022;4.692;2023-05-19T05:28:57;102808.19;;;10.65;65.99
12247;BME280;6186;52.022;4.692;2023-05-19T05:31:23;102802.91;;;10.62;66.23
12247;BME280;6186;52.022;4.692;2023-05-19T05:33:48;102807.34;;;10.71;66.57
12247;BME280;6186;52.022;4.692;2023-05-19T05:36:13;102808.25;;;10.73;66.52
12247;BME280;6186;52.022;4.692;2023-05-19T05:38:39;102804.72;;;10.71;66.53
12247;BME280;6186;52.022;4.692;2023-05-19T05:41:04;102797.66;;;10.71;66.92
12247;BME280;6186;52.022;4.692;2023-05-19T05:43:29;102800.34;;;10.77;66.93
12247;BME280;6186;52.022;4.692;2023-05-19T05:45:55;102808.25;;;10.79;67.25
12247;BME280;6186;52.022;4.692;2023-05-19T05:48:21;102799.50;;;10.81;67.24
12247;BME280;6186;52.022;4.692;2023-05-19T05:50:47;102808.28;;;10.86;67.66
12247;BME280;6186;52.022;4.692;2023-05-19T05:53:17;102817.09;;;10.88;67.63
12247;BME280;6186;52.022;4.692;2023-05-19T05:55:43;102801.31;;;10.91;67.99
12247;BME280;6186;52.022;4.692;2023-05-19T05:58:09;102806.59;;;10.94;68.00
12247;BME280;6186;52.022;4.692;2023-05-19T06:00:34;102806.63;;;11.00;68.29
12247;BME280;6186;52.022;4.692;2023-05-19T06:02:59;102792.59;;;11.04;68.30
12247;BME280;6186;52.022;4.692;2023-05-19T06:05:24;102799.66;;;11.16;68.65
12247;BME280;6186;52.022;4.692;2023-05-19T06:07:50;102798.81;;;11.23;69.04
12247;BME280;6186;52.022;4.692;2023-05-19T06:10:15;102795.31;;;11.28;69.29
12247;BME280;6186;52.022;4.692;2023-05-19T06:12:40;102793.56;;;11.35;69.24
12247;BME280;6186;52.022;4.692;2023-05-19T06:15:06;102790.03;;;11.37;69.33
12247;BME280;6186;52.022;4.692;2023-05-19T06:17:31;102791.81;;;11.43;69.52
12247;BME280;6186;52.022;4.692;2023-05-19T06:19:56;102785.69;;;11.43;69.52
12247;BME280;6186;52.022;4.692;2023-05-19T06:22:22;102797.13;;;11.52;70.06
12247;BME280;6186;52.022;4.692;2023-05-19T06:24:47;102799.78;;;11.60;70.10
12247;BME280;6186;52.022;4.692;2023-05-19T06:27:12;102800.69;;;11.66;70.46
12247;BME280;6186;52.022;4.692;2023-05-19T06:29:37;102801.56;;;11.70;70.25
12247;BME280;6186;52.022;4.692;2023-05-19T06:32:03;102797.19;;;11.76;70.52
12247;BME280;6186;52.022;4.692;2023-05-19T06:34:28;102798.06;;;11.81;70.95
12247;BME280;6186;52.022;4.692;2023-05-19T06:36:53;102798.97;;;11.88;71.26
12247;BME280;6186;52.022;4.692;2023-05-19T06:39:19;102798.97;;;11.97;71.71
12247;BME280;6186;52.022;4.692;2023-05-19T06:41:44;102787.53;;;12.01;71.89
12247;BME280;6186;52.022;4.692;2023-05-19T06:44:09;102801.59;;;12.15;71.86
12247;BME280;6186;52.022;4.692;2023-05-19T06:46:34;102791.94;;;12.17;72.31
12247;BME280;6186;52.022;4.692;2023-05-19T06:49:00;102799.84;;;12.30;72.63
12247;BME280;6186;52.022;4.692;2023-05-19T06:51:25;102803.34;;;12.40;72.94
12247;BME280;6186;52.022;4.692;2023-05-19T06:53:51;102803.34;;;12.46;73.01
12247;BME280;6186;52.022;4.692;2023-05-19T06:56:16;102803.34;;;12.58;73.48
12247;BME280;6186;52.022;4.692;2023-05-19T06:58:42;102805.06;;;12.71;73.69
12247;BME280;6186;52.022;4.692;2023-05-19T07:01:07;102803.25;;;12.79;73.82
12247;BME280;6186;52.022;4.692;2023-05-19T07:03:32;102807.63;;;12.89;74.03
12247;BME280;6186;52.022;4.692;2023-05-19T07:05:57;102797.06;;;12.91;74.12
12247;BME280;6186;52.022;4.692;2023-05-19T07:08:23;102804.97;;;13.01;74.14
12247;BME280;6186;52.022;4.692;2023-05-19T07:10:48;102802.34;;;13.07;74.44
12247;BME280;6186;52.022;4.692;2023-05-19T07:13:13;102799.63;;;13.13;74.75
12247;BME280;6186;52.022;4.692;2023-05-19T07:15:38;102795.25;;;13.17;75.08
12247;BME280;6186;52.022;4.692;2023-05-19T07:18:04;102791.69;;;13.18;75.05
12247;BME280;6186;52.022;4.692;2023-05-19T07:20:29;102803.97;;;13.31;75.28
12247;BME280;6186;52.022;4.692;2023-05-19T07:22:54;102791.56;;;13.41;75.72
12247;BME280;6186;52.022;4.692;2023-05-19T07:25:19;102800.38;;;13.47;75.76
12247;BME280;6186;52.022;4.692;2023-05-19T07:27:45;102800.31;;;13.55;76.13
12247;BME280;6186;52.022;4.692;2023-05-19T07:30:11;102798.50;;;13.63;76.36
12247;BME280;6186;52.022;4.692;2023-05-19T07:32:36;102795.78;;;13.75;76.87
12247;BME280;6186;52.022;4.692;2023-05-19T07:35:01;102797.47;;;13.85;76.85
12247;BME280;6186;52.022;4.692;2023-05-19T07:37:27;102797.34;;;13.97;77.37
12247;BME280;6186;52.022;4.692;2023-05-19T07:39:52;102795.50;;;14.11;77.76
12247;BME280;6186;52.022;4.692;2023-05-19T07:42:17;102783.00;;;14.28;78.37
12247;BME280;6186;52.022;4.692;2023-05-19T07:44:42;102789.91;;;14.46;78.87
12247;BME280;6186;52.022;4.692;2023-05-19T07:47:08;102781.78;;;14.61;78.95
12247;BME280;6186;52.022;4.692;2023-05-19T07:49:33;102769.25;;;14.75;79.65
12247;BME280;6186;52.022;4.692;2023-05-19T07:51:58;102783.13;;;14.98;80.00
12247;BME280;6186;52.022;4.692;2023-05-19T07:54:23;102775.78;;;15.18;80.52
12247;BME280;6186;52.022;4.692;2023-05-19T07:56:49;102776.38;;;15.40;80.82
12247;BME280;6186;52.022;4.692;2023-05-19T07:59:15;102775.28;;;15.54;80.68
12247;BME280;6186;52.022;4.692;2023-05-19T08:01:40;102769.81;;;15.66;80.87
12247;BME280;6186;52.022;4.692;2023-05-19T08:04:05;102781.09;;;15.79;81.06
12247;BME280;6186;52.022;4.692;2023-05-19T08:06:30;102763.19;;;15.93;81.63
12247;BME280;6186;52.022;4.692;2023-05-19T08:08:56;102763.81;;;16.09;81.73
12247;BME280;6186;52.022;4.692;2023-05-19T08:11:21;102768.78;;;16.27;82.27
12247;BME280;6186;52.022;4.692;2023-05-19T08:13:46;102762.25;;;16.44;82.42
12247;BME280;6186;52.022;4.692;2023-05-19T08:16:11;102767.31;;;16.58;82.36
12247;BME280;6186;52.022;4.692;2023-05-19T08:18:37;102762.59;;;16.73;82.74
12247;BME280;6186;52.022;4.692;2023-05-19T08:21:02;102758.00;;;16.81;82.37
12247;BME280;6186;52.022;4.692;2023-05-19T08:23:27;102755.06;;;16.95;82.90
12247;BME280;6186;52.022;4.692;2023-05-19T08:25:52;102746.84;;;17.06;83.17
12247;BME280;6186;52.022;4.692;2023-05-19T08:28:18;102756.31;;;17.20;83.15
12247;BME280;6186;52.022;4.692;2023-05-19T08:30:43;102757.66;;;17.38;83.88
12247;BME280;6186;52.022;4.692;2023-05-19T08:33:08;102751.03;;;17.57;84.01
12247;BME280;6186;52.022;4.692;2023-05-19T08:35:33;102744.50;;;17.70;84.03
12247;BME280;6186;52.022;4.692;2023-05-19T08:37:59;102749.59;;;17.79;84.10
12247;BME280;6186;52.022;4.692;2023-05-19T08:40:24;102753.69;;;17.94;84.19
12247;BME280;6186;52.022;4.692;2023-05-19T08:42:49;102742.66;;;18.07;84.39
12247;BME280;6186;52.022;4.692;2023-05-19T08:45:14;102735.31;;;18.17;84.19
12247;BME280;6186;52.022;4.692;2023-05-19T08:47:40;102734.28;;;18.22;83.85
12247;BME280;6186;52.022;4.692;2023-05-19T08:50:06;102722.56;;;18.28;84.13
12247;BME280;6186;52.022;4.692;2023-05-19T08:55:07;102731.47;;;18.59;84.49
12247;BME280;6186;52.022;4.692;2023-05-19T08:57:34;102725.97;;;18.65;84.06
12247;BME280;6186;52.022;4.692;2023-05-19T09:00:01;102730.81;;;18.82;84.71
12247;BME280;6186;52.022;4.692;2023-05-19T09:02:26;102710.03;;;18.93;84.72
12247;BME280;6186;52.022;4.692;2023-05-19T09:04:52;102722.91;;;19.08;84.59
12247;BME280;6186;52.022;4.692;2023-05-19T09:07:17;102731.28;;;19.25;85.37
12247;BME280;6186;52.022;4.692;2023-05-19T09:09:43;102727.91;;;19.47;85.73
12247;BME280;6186;52.022;4.692;2023-05-19T09:12:12;102723.91;;;19.62;85.72
12247;BME280;6186;52.022;4.692;2023-05-19T09:14:38;102727.09;;;19.73;85.54
12247;BME280;6186;52.022;4.692;2023-05-19T09:17:04;102723.63;;;19.96;86.58
12247;BME280;6186;52.022;4.692;2023-05-19T09:19:29;102721.13;;;20.17;86.84
12247;BME280;6186;52.022;4.692;2023-05-19T09:21:58;102719.72;;;20.32;87.09
12247;BME280;6186;52.022;4.692;2023-05-19T09:24:24;102721.50;;;20.56;87.83
12247;BME280;6186;52.022;4.692;2023-05-19T09:26:49;102697.41;;;20.56;87.54
12247;BME280;6186;52.022;4.692;2023-05-19T09:29:16;102711.13;;;20.95;88.97
12247;BME280;6186;52.022;4.692;2023-05-19T09:31:49;102707.38;;;21.22;89.73
12247;BME280;6186;52.022;4.692;2023-05-19T09:34:14;102683.84;;;21.30;89.58
12247;BME280;6186;52.022;4.692;2023-05-19T09:36:40;102707.00;;;21.52;89.58
12247;BME280;6186;52.022;4.692;2023-05-19T09:39:12;102705.13;;;21.76;89.99
12247;BME280;6186;52.022;4.692;2023-05-19T09:41:37;102718.13;;;21.87;89.76
12247;BME280;6186;52.022;4.692;2023-05-19T09:44:02;102705.00;;;22.01;89.19
12247;BME280;6186;52.022;4.692;2023-05-19T09:46:27;102704.94;;;22.02;88.21
12247;BME280;6186;52.022;4.692;2023-05-19T09:48:56;102719.63;;;22.14;88.43
12247;BME280;6186;52.022;4.692;2023-05-19T09:51:22;102705.63;;;22.27;88.30
12247;BME280;6186;52.022;4.692;2023-05-19T09:53:48;102706.47;;;22.48;88.33
12247;BME280;6186;52.022;4.692;2023-05-19T09:56:13;102707.41;;;22.67;87.88
12247;BME280;6186;52.022;4.692;2023-05-19T09:58:41;102700.97;;;22.90;88.83
12247;BME280;6186;52.022;4.692;2023-05-19T10:01:07;102700.88;;;23.10;87.70
12247;BME280;6186;52.022;4.692;2023-05-19T10:03:33;102700.16;;;23.25;87.95
12247;BME280;6186;52.022;4.692;2023-05-19T10:06:00;102705.53;;;23.44;88.82
12247;BME280;6186;52.022;4.692;2023-05-19T10:08:27;102693.28;;;23.55;86.29
12247;BME280;6186;52.022;4.692;2023-05-19T10:10:53;102695.59;;;23.63;86.10
12247;BME280;6186;52.022;4.692;2023-05-19T10:13:20;102694.50;;;23.67;85.32
12247;BME280;6186;52.022;4.692;2023-05-19T10:15:46;102692.03;;;23.62;84.24
12247;BME280;6186;52.022;4.692;2023-05-19T10:18:14;102695.19;;;23.53;83.11
12247;BME280;6186;52.022;4.692;2023-05-19T10:20:42;102694.94;;;23.41;81.72
12247;BME280;6186;52.022;4.692;2023-05-19T10:23:07;102689.41;;;23.25;81.19
12247;BME280;6186;52.022;4.692;2023-05-19T10:25:34;102686.19;;;23.17;81.72
12247;BME280;6186;52.022;4.692;2023-05-19T10:28:03;102675.88;;;23.26;82.39
12247;BME280;6186;52.022;4.692;2023-05-19T10:30:33;102686.44;;;23.31;81.13
12247;BME280;6186;52.022;4.692;2023-05-19T10:33:02;102683.75;;;23.31;80.95
12247;BME280;6186;52.022;4.692;2023-05-19T10:47:12;102667.22;;;23.74;81.01
12247;BME280;6186;52.022;4.692;2023-05-19T10:49:38;102659.16;;;23.91;81.08
12247;BME280;6186;52.022;4.692;2023-05-19T10:52:18;102666.22;;;24.11;79.68
12247;BME280;6186;52.022;4.692;2023-05-19T10:54:43;102658.59;;;24.19;79.21
12247;BME280;6186;52.022;4.692;2023-05-19T10:57:13;102665.06;;;24.32;77.87
12247;BME280;6186;52.022;4.692;2023-05-19T10:59:38;102665.94;;;24.33;76.96
12247;BME280;6186;52.022;4.692;2023-05-19T11:02:05;102670.13;;;24.38;76.59
12247;BME280;6186;52.022;4.692;2023-05-19T11:04:57;102655.75;;;24.55;75.99
12247;BME280;6186;52.022;4.692;2023-05-19T11:07:30;102660.00;;;24.59;74.55
12247;BME280;6186;52.022;4.692;2023-05-19T11:09:56;102651.22;;;24.72;74.32
12247;BME280;6186;52.022;4.692;2023-05-19T11:12:22;102655.13;;;24.82;73.83
12247;BME280;6186;52.022;4.692;2023-05-19T11:14:51;102657.41;;;24.90;74.06
12247;BME280;6186;52.022;4.692;2023-05-19T11:17:18;102664.88;;;25.00;72.97
12247;BME280;6186;52.022;4.692;2023-05-19T11:19:56;102659.13;;;24.91;72.80
12247;BME280;6186;52.022;4.692;2023-05-19T11:22:26;102657.97;;;24.79;71.46
12247;BME280;6186;52.022;4.692;2023-05-19T11:24:55;102663.25;;;24.65;70.52
12247;BME280;6186;52.022;4.692;2023-05-19T11:27:33;102666.56;;;24.70;71.49
12247;BME280;6186;52.022;4.692;2023-05-19T11:29:59;102663.03;;;24.85;71.80
12247;BME280;6186;52.022;4.692;2023-05-19T11:32:29;102659.56;;;24.99;71.44
12247;BME280;6186;52.022;4.692;2023-05-19T11:34:55;102655.22;;;25.12;71.17
12247;BME280;6186;52.022;4.692;2023-05-19T11:37:21;102647.22;;;25.26;71.07
12247;BME280;6186;52.022;4.692;2023-05-19T11:39:47;102638.94;;;25.29;71.19
12247;BME280;6186;52.022;4.692;2023-05-19T11:42:12;102650.00;;;25.40;71.14
12247;BME280;6186;52.022;4.692;2023-05-19T11:44:38;102646.38;;;25.41;70.48
12247;BME280;6186;52.022;4.692;2023-05-19T11:47:04;102643.00;;;25.36;69.03
12247;BME280;6186;52.022;4.692;2023-05-19T11:49:29;102641.28;;;25.35;68.82
12247;BME280;6186;52.022;4.692;2023-05-19T11:51:56;102641.38;;;25.34;67.86
12247;BME280;6186;52.022;4.692;2023-05-19T11:54:28;102644.19;;;25.32;67.42
12247;BME280;6186;52.022;4.692;2023-05-19T11:56:53;102637.63;;;25.36;67.32
12247;BME280;6186;52.022;4.692;2023-05-19T11:59:28;102636.84;;;25.34;66.46
12247;BME280;6186;52.022;4.692;2023-05-19T12:01:53;102628.53;;;25.39;66.63
12247;BME280;6186;52.022;4.692;2023-05-19T12:04:19;102625.56;;;25.43;66.06
12247;BME280;6186;52.022;4.692;2023-05-19T12:06:47;102622.22;;;25.38;65.48
12247;BME280;6186;52.022;4.692;2023-05-19T12:09:13;102634.50;;;25.44;65.49
12247;BME280;6186;52.022;4.692;2023-05-19T12:11:38;102624.44;;;25.47;64.69
12247;BME280;6186;52.022;4.692;2023-05-19T12:14:04;102627.03;;;25.49;64.48
12247;BME280;6186;52.022;4.692;2023-05-19T12:16:33;102627.63;;;25.54;64.77
12247;BME280;6186;52.022;4.692;2023-05-19T12:18:59;102626.22;;;25.62;64.79
12247;BME280;6186;52.022;4.692;2023-05-19T12:21:27;102618.75;;;25.52;63.66
12247;BME280;6186;52.022;4.692;2023-05-19T12:23:52;102620.19;;;25.43;63.29
12247;BME280;6186;52.022;4.692;2023-05-19T12:26:18;102612.34;;;25.39;63.13
12247;BME280;6186;52.022;4.692;2023-05-19T12:28:44;102612.66;;;25.33;62.79
12247;BME280;6186;52.022;4.692;2023-05-19T12:31:10;102605.91;;;25.26;62.32
12247;BME280;6186;52.022;4.692;2023-05-19T12:33:35;102609.81;;;25.36;63.11
12247;BME280;6186;52.022;4.692;2023-05-19T12:36:01;102600.53;;;25.41;62.49
12247;BME280;6186;52.022;4.692;2023-05-19T12:38:26;102604.38;;;25.51;62.80
12247;BME280;6186;52.022;4.692;2023-05-19T12:40:51;102597.72;;;25.43;61.89
12247;BME280;6186;52.022;4.692;2023-05-19T12:43:23;102600.41;;;25.43;61.72
12247;BME280;6186;52.022;4.692;2023-05-19T12:45:48;102598.16;;;25.35;61.11
12247;BME280;6186;52.022;4.692;2023-05-19T12:48:14;102589.13;;;25.21;60.59
12247;BME280;6186;52.022;4.692;2023-05-19T12:50:40;102577.16;;;25.10;60.81
12247;BME280;6186;52.022;4.692;2023-05-19T12:53:10;102598.13;;;25.05;59.88
12247;BME280;6186;52.022;4.692;2023-05-19T12:55:38;102603.16;;;24.96;59.90
12247;BME280;6186;52.022;4.692;2023-05-19T12:58:05;102592.88;;;24.87;59.70
12247;BME280;6186;52.022;4.692;2023-05-19T13:00:31;102600.63;;;24.93;60.04
12247;BME280;6186;52.022;4.692;2023-05-19T13:03:01;102592.44;;;24.94;59.56
12247;BME280;6186;52.022;4.692;2023-05-19T13:05:28;102593.16;;;24.82;58.98
12247;BME280;6186;52.022;4.692;2023-05-19T13:07:56;102590.47;;;24.82;58.91
12247;BME280;6186;52.022;4.692;2023-05-19T13:10:22;102596.91;;;24.95;59.63
12247;BME280;6186;52.022;4.692;2023-05-19T13:12:48;102590.47;;;24.98;59.24
12247;BME280;6186;52.022;4.692;2023-05-19T13:15:13;102590.13;;;24.88;58.19
12247;BME280;6186;52.022;4.692;2023-05-19T13:17:38;102585.25;;;24.79;58.42
12247;BME280;6186;52.022;4.692;2023-05-19T13:20:04;102596.47;;;24.87;58.93
12247;BME280;6186;52.022;4.692;2023-05-19T13:22:30;102585.94;;;24.98;58.72